Time;durP1;ratioP1;P1;durP2;ratioP2;P2;SDS_P1;SDS_P2;PMS_P1;PMS_P2;Temp;Humidity;BMP_temperature;BMP_pressure;BME280_temperature;BME280_humidity;BME280_pressure;Samples;Min_cycle;Max_cycle;Signal;HPM_P1;HPM_P2
2021/08/30 05:31:05;;;;;;;11.18;8.57;;;19.60;74.00;;;;;;21056810;28;20138;-63
2021/08/30 05:41:05;;;;;;;18.40;10.85;;;19.50;74.10;;;;;;21006541;28;20033;-62
2021/08/30 05:51:06;;;;;;;25.75;12.15;;;19.60;74.00;;;;;;20969401;28;20407;-63
2021/08/30 06:01:07;;;;;;;19.23;13.07;;;19.40;74.30;;;;;;20949179;28;20035;-64
2021/08/30 06:11:07;;;;;;;28.20;13.55;;;19.60;73.90;;;;;;20970742;28;20138;-64
2021/08/30 06:21:08;;;;;;;28.60;13.00;;;19.60;73.80;;;;;;20969208;28;20048;-65
2021/08/30 06:31:08;;;;;;;29.08;12.10;;;19.60;73.50;;;;;;20968739;28;20096;-65
2021/08/30 06:41:09;;;;;;;20.92;12.85;;;19.60;73.30;;;;;;20920321;28;20025;-65
2021/08/30 06:51:09;;;;;;;21.23;13.20;;;19.70;73.20;;;;;;20910984;28;20064;-65
2021/08/30 07:01:10;;;;;;;20.13;12.57;;;19.70;73.00;;;;;;20900203;28;20029;-66
2021/08/30 07:11:11;;;;;;;16.03;10.87;;;19.70;72.80;;;;;;20899429;28;20025;-65
2021/08/30 07:21:11;;;;;;;17.38;10.65;;;19.80;72.60;;;;;;20887408;28;20534;-66
2021/08/30 07:31:12;;;;;;;20.52;11.40;;;19.90;72.60;;;;;;20877968;28;20690;-66
2021/08/30 07:41:13;;;;;;;14.25;10.02;;;19.90;72.70;;;;;;20902497;28;20025;-65
2021/08/30 07:51:14;;;;;;;14.20;10.32;;;20.00;72.30;;;;;;20838406;28;20105;-66
2021/08/30 08:01:14;;;;;;;13.55;9.77;;;20.00;72.30;;;;;;20830804;28;20349;-65
2021/08/30 08:11:15;;;;;;;13.85;11.15;;;20.00;72.00;;;;;;20875849;28;20021;-66
2021/08/30 08:21:15;;;;;;;14.00;10.38;;;20.10;71.80;;;;;;20904490;28;20032;-66
2021/08/30 08:31:16;;;;;;;13.75;9.32;;;20.20;71.20;;;;;;20904181;28;20025;-66
2021/08/30 08:41:16;;;;;;;11.77;9.32;;;20.20;70.90;;;;;;20868664;28;20044;-65
2021/08/30 08:51:17;;;;;;;14.20;9.27;;;20.20;71.00;;;;;;20863946;28;20108;-66
2021/08/30 09:01:26;;;;;;;12.70;9.25;;;20.30;71.20;;;;;;20892575;28;20032;-66
2021/08/30 09:11:56;;;;;;;12.95;10.00;;;20.20;71.00;;;;;;20901975;28;20029;-67
2021/08/30 09:21:57;;;;;;;11.23;9.55;;;20.30;70.90;;;;;;20885408;28;20518;-66
2021/08/30 09:32:09;;;;;;;10.02;8.45;;;20.20;70.90;;;;;;20883336;28;20029;-65
2021/08/30 09:42:11;;;;;;;13.18;9.43;;;20.30;70.50;;;;;;20900857;28;20021;-66
2021/08/30 09:52:11;;;;;;;11.57;8.88;;;20.40;70.40;;;;;;20850879;28;20525;-65
2021/08/30 10:02:17;;;;;;;9.20;8.10;;;20.40;70.20;;;;;;20849335;28;20033;-66
2021/08/30 10:12:18;;;;;;;9.63;7.90;;;20.40;70.00;;;;;;20905735;28;20033;-65
2021/08/30 10:22:19;;;;;;;9.60;8.07;;;20.40;69.90;;;;;;20914900;28;20040;-66
2021/08/30 10:32:22;;;;;;;8.93;8.02;;;20.40;69.90;;;;;;20914051;28;20025;-64
2021/08/30 10:42:22;;;;;;;9.80;7.50;;;20.40;69.60;;;;;;20900407;28;20075;-65
2021/08/30 10:52:23;;;;;;;12.68;6.97;;;20.40;69.70;;;;;;20913756;28;20029;-65
2021/08/30 11:02:38;;;;;;;8.63;7.72;;;20.40;70.20;;;;;;20912488;28;20100;-66
2021/08/30 11:12:41;;;;;;;8.32;7.43;;;20.50;69.50;;;;;;20912170;28;20471;-66
2021/08/30 11:22:43;;;;;;;8.13;7.25;;;20.40;68.90;;;;;;20924201;22;20525;-61
2021/08/30 11:32:43;;;;;;;8.95;7.28;;;20.40;69.10;;;;;;20896922;28;20079;-65
2021/08/30 11:42:44;;;;;;;10.70;6.82;;;20.40;68.40;;;;;;20906473;28;20029;-64
2021/08/30 11:52:44;;;;;;;12.27;7.60;;;20.40;70.00;;;;;;20907327;28;20120;-60
2021/08/30 12:02:45;;;;;;;11.18;7.35;;;20.30;70.00;;;;;;20907037;28;20043;-64
2021/08/30 12:12:54;;;;;;;10.70;7.35;;;20.20;70.30;;;;;;20906191;28;20538;-63
2021/08/30 12:22:57;;;;;;;8.77;7.07;;;20.20;70.60;;;;;;20903441;28;20028;-63
2021/08/30 12:33:06;;;;;;;14.32;7.78;;;20.20;70.80;;;;;;20902157;28;20116;-62
2021/08/30 12:43:08;;;;;;;8.88;6.25;;;20.30;69.80;;;;;;20902482;28;20120;-63
2021/08/30 12:53:09;;;;;;;8.30;6.53;;;20.40;69.40;;;;;;20901489;28;20025;-62
2021/08/30 13:03:10;;;;;;;7.82;7.03;;;20.50;69.10;;;;;;20900197;28;20078;-62
2021/08/30 13:13:12;;;;;;;19.00;6.73;;;20.50;69.00;;;;;;20900542;28;20052;-61
2021/08/30 13:23:13;;;;;;;11.90;6.95;;;20.60;69.10;;;;;;20900031;28;20491;-61
2021/08/30 13:33:14;;;;;;;6.53;5.72;;;20.60;68.60;;;;;;20899658;28;20021;-61
2021/08/30 13:43:14;;;;;;;6.53;5.25;;;20.60;68.80;;;;;;20899752;28;20037;-63
2021/08/30 13:53:15;;;;;;;7.32;5.65;;;20.60;68.30;;;;;;20915729;28;20100;-62
2021/08/30 14:03:15;;;;;;;8.75;4.97;;;20.70;68.00;;;;;;20915345;28;20094;-62
2021/08/30 14:13:17;;;;;;;7.40;5.38;;;20.70;68.00;;;;;;20914229;28;20036;-63
2021/08/30 14:23:20;;;;;;;7.07;5.35;;;20.70;67.90;;;;;;20912847;28;20036;-64
2021/08/30 14:33:21;;;;;;;7.00;5.57;;;20.70;67.80;;;;;;20912855;28;20024;-62
2021/08/30 14:43:21;;;;;;;5.80;4.95;;;20.70;67.70;;;;;;20912759;28;20106;-63
2021/08/30 14:53:22;;;;;;;9.38;4.70;;;20.80;67.70;;;;;;20911805;28;20086;-59
2021/08/30 15:03:22;;;;;;;4.88;4.38;;;20.70;67.80;;;;;;20910398;28;20148;-59
2021/08/30 15:13:23;;;;;;;7.28;4.72;;;20.80;67.40;;;;;;20910288;28;20037;-58
2021/08/30 15:23:24;;;;;;;14.00;6.22;;;20.70;67.80;;;;;;20909939;28;20090;-60
2021/08/30 15:33:26;;;;;;;9.73;5.18;;;20.70;68.30;;;;;;20911403;28;20541;-63
2021/08/30 15:43:26;;;;;;;5.80;4.85;;;20.60;68.10;;;;;;20903564;28;20468;-65
2021/08/30 15:53:27;;;;;;;7.38;4.95;;;20.50;68.10;;;;;;20903776;28;20061;-63
2021/08/30 16:03:29;;;;;;;6.15;4.07;;;20.50;68.40;;;;;;20913909;28;20036;-63
2021/08/30 16:13:33;;;;;;;6.00;5.35;;;20.40;67.70;;;;;;20904514;28;20029;-63
2021/08/30 16:23:34;;;;;;;13.25;5.05;;;20.40;67.90;;;;;;20891391;28;20048;-63
2021/08/30 16:33:34;;;;;;;6.05;4.30;;;20.40;67.40;;;;;;20905884;28;20071;-66
2021/08/30 16:43:35;;;;;;;10.68;5.30;;;20.40;67.20;;;;;;20906028;28;20025;-63
2021/08/30 16:53:35;;;;;;;6.05;5.15;;;20.40;67.70;;;;;;20903513;28;20526;-63
2021/08/30 17:03:36;;;;;;;7.20;5.82;;;20.40;67.60;;;;;;20905527;28;20495;-63
2021/08/30 17:13:37;;;;;;;18.05;4.90;;;20.40;67.30;;;;;;20900855;28;20033;-65
2021/08/30 17:23:37;;;;;;;5.30;4.33;;;20.30;66.90;;;;;;20862624;28;20044;-64
2021/08/30 17:33:38;;;;;;;13.50;5.07;;;20.10;66.70;;;;;;20901196;28;20566;-65
2021/08/30 17:43:38;;;;;;;8.80;5.90;;;19.90;66.90;;;;;;20900623;28;20456;-62
2021/08/30 17:53:39;;;;;;;9.43;5.38;;;20.00;67.50;;;;;;20909040;28;20501;-64
2021/08/30 18:03:39;;;;;;;10.25;5.53;;;20.00;67.70;;;;;;20894006;28;20149;-65
2021/08/30 18:13:40;;;;;;;22.13;6.53;;;20.00;68.00;;;;;;20843229;28;20041;-61
2021/08/30 18:23:40;;;;;;;15.52;5.85;;;20.20;68.10;;;;;;20835591;28;86947;-63
2021/08/30 18:33:41;;;;;;;9.50;6.47;;;20.10;68.30;;;;;;20906380;28;20115;-62
2021/08/30 18:43:42;;;;;;;7.93;6.07;;;19.80;68.00;;;;;;20914372;28;20037;-61
2021/08/30 18:53:42;;;;;;;9.80;5.82;;;19.60;68.00;;;;;;20912910;28;20029;-63
2021/08/30 19:03:43;;;;;;;7.88;5.55;;;19.50;68.50;;;;;;20911314;28;20442;-63
2021/08/30 19:13:43;;;;;;;8.57;6.45;;;19.60;68.80;;;;;;20907336;28;20025;-63
2021/08/30 19:23:44;;;;;;;8.57;6.00;;;19.70;69.00;;;;;;20908875;28;20607;-64
2021/08/30 19:33:47;;;;;;;8.87;5.73;;;19.70;69.20;;;;;;20711929;28;144419;-63
2021/08/30 19:43:47;;;;;;;7.28;5.45;;;19.70;69.30;;;;;;20906641;28;20473;-61
2021/08/30 19:53:48;;;;;;;6.55;5.60;;;19.70;69.40;;;;;;20905569;28;20108;-63
2021/08/30 20:03:48;;;;;;;8.02;5.63;;;19.70;69.50;;;;;;20904778;28;20480;-63
2021/08/30 20:13:49;;;;;;;6.80;4.88;;;19.80;69.30;;;;;;20905759;28;20025;-64
2021/08/30 20:23:50;;;;;;;8.43;6.10;;;19.80;69.50;;;;;;20903571;28;20037;-64
2021/08/30 20:33:50;;;;;;;8.90;5.85;;;19.90;69.50;;;;;;20899117;28;20115;-63
2021/08/30 20:43:52;;;;;;;9.40;5.93;;;19.90;69.60;;;;;;20901509;28;20663;-62
2021/08/30 20:53:52;;;;;;;10.43;5.68;;;19.90;69.60;;;;;;20900326;28;20021;-63
2021/08/30 21:03:53;;;;;;;6.55;5.10;;;19.90;69.70;;;;;;20900375;28;20074;-63
2021/08/30 21:13:53;;;;;;;7.80;5.25;;;19.90;69.70;;;;;;20899658;28;20544;-62
2021/08/30 21:23:54;;;;;;;6.80;5.20;;;19.90;69.80;;;;;;20898268;28;20025;-63
2021/08/30 21:33:55;;;;;;;6.90;4.60;;;19.90;69.90;;;;;;20837958;28;92268;-63
2021/08/30 21:43:56;;;;;;;6.60;4.63;;;19.90;70.10;;;;;;20779484;28;861918;-62
2021/08/30 21:53:56;;;;;;;9.93;5.28;;;19.80;70.00;;;;;;20886215;28;20025;-62
2021/08/30 22:03:58;;;;;;;9.10;5.65;;;19.80;70.10;;;;;;20900543;28;20064;-62
2021/08/30 22:13:59;;;;;;;9.48;5.32;;;19.80;70.10;;;;;;20915629;28;20039;-62
2021/08/30 22:23:59;;;;;;;6.95;5.50;;;19.80;70.20;;;;;;20914399;28;20036;-63
2021/08/30 22:34:00;;;;;;;8.43;5.72;;;19.70;70.00;;;;;;20913682;28;20502;-63
2021/08/30 22:44:06;;;;;;;6.13;5.30;;;19.70;69.80;;;;;;20913481;28;20029;-63
2021/08/30 22:54:06;;;;;;;8.32;5.13;;;19.60;69.70;;;;;;20912424;28;20021;-63
2021/08/30 23:04:07;;;;;;;7.63;5.57;;;19.70;69.60;;;;;;20911565;28;20530;-63
2021/08/30 23:14:10;;;;;;;7.85;6.55;;;19.60;70.00;;;;;;20910560;28;20025;-63
2021/08/30 23:24:11;;;;;;;9.13;6.13;;;19.60;70.00;;;;;;20912350;28;20029;-64
2021/08/30 23:34:12;;;;;;;6.78;5.30;;;19.60;70.00;;;;;;20913489;28;20040;-64
2021/08/30 23:44:14;;;;;;;7.40;5.32;;;19.60;69.90;;;;;;20912742;28;20025;-63
2021/08/30 23:54:14;;;;;;;7.57;5.72;;;19.60;69.90;;;;;;20911731;28;20040;-62
